sensor_id;sensor_type;location;lat;lon;timestamp;P1;durP1;ratioP1;P2;durP2;ratioP2
57047;SDS011;42934;54.294;18.598;2022-12-01T00:01:43;40.17;;;19.83;;
57047;SDS011;42934;54.294;18.598;2022-12-01T00:04:13;44.22;;;21.10;;
57047;SDS011;42934;54.294;18.598;2022-12-01T00:06:43;45.03;;;20.65;;
57047;SDS011;42934;54.294;18.598;2022-12-01T00:09:13;44.03;;;20.83;;
57047;SDS011;42934;54.294;18.598;2022-12-01T00:11:59;43.83;;;20.92;;
57047;SDS011;42934;54.294;18.598;2022-12-01T00:14:28;41.10;;;20.60;;
57047;SDS011;42934;54.294;18.598;2022-12-01T00:16:57;45.47;;;20.15;;
57047;SDS011;42934;54.294;18.598;2022-12-01T00:19:27;37.63;;;19.15;;
57047;SDS011;42934;54.294;18.598;2022-12-01T00:21:58;43.28;;;20.13;;
57047;SDS011;42934;54.294;18.598;2022-12-01T00:24:27;38.45;;;19.63;;
57047;SDS011;42934;54.294;18.598;2022-12-01T00:26:56;38.05;;;19.38;;
57047;SDS011;42934;54.294;18.598;2022-12-01T00:29:26;32.95;;;18.17;;
57047;SDS011;42934;54.294;18.598;2022-12-01T00:31:55;43.15;;;20.70;;
57047;SDS011;42934;54.294;18.598;2022-12-01T00:34:24;36.38;;;18.58;;
57047;SDS011;42934;54.294;18.598;2022-12-01T00:36:53;36.75;;;18.20;;
57047;SDS011;42934;54.294;18.598;2022-12-01T00:39:24;36.60;;;18.42;;
57047;SDS011;42934;54.294;18.598;2022-12-01T00:41:53;38.92;;;18.40;;
57047;SDS011;42934;54.294;18.598;2022-12-01T00:44:23;37.05;;;18.33;;
57047;SDS011;42934;54.294;18.598;2022-12-01T00:46:52;38.03;;;17.77;;
57047;SDS011;42934;54.294;18.598;2022-12-01T00:49:21;37.78;;;18.25;;
57047;SDS011;42934;54.294;18.598;2022-12-01T00:51:50;36.38;;;18.83;;
57047;SDS011;42934;54.294;18.598;2022-12-01T00:54:19;39.90;;;18.92;;
57047;SDS011;42934;54.294;18.598;2022-12-01T00:56:50;35.53;;;18.55;;
57047;SDS011;42934;54.294;18.598;2022-12-01T00:59:19;36.95;;;18.60;;
57047;SDS011;42934;54.294;18.598;2022-12-01T01:01:49;39.63;;;18.17;;
57047;SDS011;42934;54.294;18.598;2022-12-01T01:04:18;37.58;;;17.33;;
57047;SDS011;42934;54.294;18.598;2022-12-01T01:06:48;37.03;;;17.75;;
57047;SDS011;42934;54.294;18.598;2022-12-01T01:09:17;33.37;;;17.13;;
57047;SDS011;42934;54.294;18.598;2022-12-01T01:11:46;31.38;;;16.15;;
57047;SDS011;42934;54.294;18.598;2022-12-01T01:14:17;36.33;;;16.90;;
57047;SDS011;42934;54.294;18.598;2022-12-01T01:16:47;32.70;;;16.67;;
57047;SDS011;42934;54.294;18.598;2022-12-01T01:19:16;33.22;;;17.05;;
57047;SDS011;42934;54.294;18.598;2022-12-01T01:21:45;32.13;;;17.58;;
57047;SDS011;42934;54.294;18.598;2022-12-01T01:24:15;33.70;;;16.88;;
57047;SDS011;42934;54.294;18.598;2022-12-01T01:26:44;33.83;;;17.67;;
57047;SDS011;42934;54.294;18.598;2022-12-01T01:29:13;32.67;;;16.17;;
57047;SDS011;42934;54.294;18.598;2022-12-01T01:31:43;33.38;;;16.75;;
57047;SDS011;42934;54.294;18.598;2022-12-01T01:34:13;29.27;;;14.88;;
57047;SDS011;42934;54.294;18.598;2022-12-01T01:36:42;27.92;;;14.20;;
57047;SDS011;42934;54.294;18.598;2022-12-01T01:39:11;25.63;;;14.45;;
57047;SDS011;42934;54.294;18.598;2022-12-01T01:41:40;28.17;;;15.63;;
57047;SDS011;42934;54.294;18.598;2022-12-01T01:47:15;26.10;;;14.13;;
57047;SDS011;42934;54.294;18.598;2022-12-01T01:49:48;25.33;;;14.32;;
57047;SDS011;42934;54.294;18.598;2022-12-01T01:52:18;27.93;;;14.73;;
57047;SDS011;42934;54.294;18.598;2022-12-01T01:54:49;25.80;;;14.32;;
57047;SDS011;42934;54.294;18.598;2022-12-01T01:57:22;24.55;;;13.80;;
57047;SDS011;42934;54.294;18.598;2022-12-01T01:59:56;24.20;;;13.45;;
57047;SDS011;42934;54.294;18.598;2022-12-01T02:02:40;27.30;;;13.60;;
57047;SDS011;42934;54.294;18.598;2022-12-01T02:05:12;24.42;;;13.50;;
57047;SDS011;42934;54.294;18.598;2022-12-01T02:07:45;30.83;;;14.07;;
57047;SDS011;42934;54.294;18.598;2022-12-01T02:12:51;22.55;;;12.25;;
57047;SDS011;42934;54.294;18.598;2022-12-01T02:15:32;21.70;;;12.35;;
57047;SDS011;42934;54.294;18.598;2022-12-01T02:18:13;21.50;;;12.25;;
57047;SDS011;42934;54.294;18.598;2022-12-01T02:21:07;23.10;;;13.57;;
57047;SDS011;42934;54.294;18.598;2022-12-01T02:27:24;19.40;;;11.73;;
57047;SDS011;42934;54.294;18.598;2022-12-01T02:30:05;26.80;;;12.88;;
57047;SDS011;42934;54.294;18.598;2022-12-01T02:32:44;22.20;;;12.38;;
57047;SDS011;42934;54.294;18.598;2022-12-01T02:35:21;26.60;;;12.85;;
57047;SDS011;42934;54.294;18.598;2022-12-01T02:38:01;22.42;;;12.02;;
57047;SDS011;42934;54.294;18.598;2022-12-01T02:43:11;23.48;;;11.60;;
57047;SDS011;42934;54.294;18.598;2022-12-01T02:45:48;22.55;;;11.63;;
57047;SDS011;42934;54.294;18.598;2022-12-01T02:48:24;20.48;;;11.65;;
57047;SDS011;42934;54.294;18.598;2022-12-01T02:50:57;20.42;;;11.93;;
57047;SDS011;42934;54.294;18.598;2022-12-01T02:53:30;22.38;;;12.10;;
57047;SDS011;42934;54.294;18.598;2022-12-01T02:55:59;19.42;;;11.13;;
57047;SDS011;42934;54.294;18.598;2022-12-01T02:58:29;18.58;;;10.73;;
57047;SDS011;42934;54.294;18.598;2022-12-01T03:03:39;18.70;;;9.95;;
57047;SDS011;42934;54.294;18.598;2022-12-01T03:06:24;16.98;;;10.05;;
57047;SDS011;42934;54.294;18.598;2022-12-01T03:09:08;19.67;;;11.00;;
57047;SDS011;42934;54.294;18.598;2022-12-01T03:11:45;21.38;;;10.50;;
57047;SDS011;42934;54.294;18.598;2022-12-01T03:14:28;20.55;;;11.30;;
57047;SDS011;42934;54.294;18.598;2022-12-01T03:17:06;20.85;;;11.50;;
57047;SDS011;42934;54.294;18.598;2022-12-01T03:19:44;19.83;;;10.93;;
57047;SDS011;42934;54.294;18.598;2022-12-01T03:22:17;21.08;;;11.35;;
57047;SDS011;42934;54.294;18.598;2022-12-01T03:24:53;18.98;;;10.50;;
57047;SDS011;42934;54.294;18.598;2022-12-01T03:27:25;18.95;;;11.02;;
57047;SDS011;42934;54.294;18.598;2022-12-01T03:29:58;19.48;;;10.82;;
57047;SDS011;42934;54.294;18.598;2022-12-01T03:32:30;20.27;;;10.32;;
57047;SDS011;42934;54.294;18.598;2022-12-01T03:35:06;19.73;;;10.45;;
57047;SDS011;42934;54.294;18.598;2022-12-01T03:37:41;18.40;;;10.35;;
57047;SDS011;42934;54.294;18.598;2022-12-01T03:40:14;17.65;;;9.88;;
57047;SDS011;42934;54.294;18.598;2022-12-01T03:42:46;17.85;;;10.13;;
57047;SDS011;42934;54.294;18.598;2022-12-01T03:45:23;18.65;;;10.57;;
57047;SDS011;42934;54.294;18.598;2022-12-01T03:47:58;18.80;;;10.45;;
57047;SDS011;42934;54.294;18.598;2022-12-01T03:50:30;21.30;;;11.00;;
57047;SDS011;42934;54.294;18.598;2022-12-01T03:53:06;19.95;;;10.80;;
57047;SDS011;42934;54.294;18.598;2022-12-01T03:55:45;19.00;;;10.13;;
57047;SDS011;42934;54.294;18.598;2022-12-01T03:58:19;17.90;;;10.05;;
57047;SDS011;42934;54.294;18.598;2022-12-01T04:00:54;19.23;;;10.77;;
57047;SDS011;42934;54.294;18.598;2022-12-01T04:05:55;16.88;;;9.70;;
57047;SDS011;42934;54.294;18.598;2022-12-01T04:10:53;17.30;;;9.50;;
57047;SDS011;42934;54.294;18.598;2022-12-01T04:13:23;17.65;;;10.20;;
57047;SDS011;42934;54.294;18.598;2022-12-01T04:15:52;18.45;;;10.90;;
57047;SDS011;42934;54.294;18.598;2022-12-01T04:18:21;20.00;;;10.18;;
57047;SDS011;42934;54.294;18.598;2022-12-01T04:20:51;17.35;;;9.82;;
57047;SDS011;42934;54.294;18.598;2022-12-01T04:23:21;18.20;;;10.20;;
57047;SDS011;42934;54.294;18.598;2022-12-01T04:26:07;18.95;;;10.20;;
57047;SDS011;42934;54.294;18.598;2022-12-01T04:28:41;16.75;;;10.00;;
57047;SDS011;42934;54.294;18.598;2022-12-01T04:31:11;16.83;;;10.43;;
57047;SDS011;42934;54.294;18.598;2022-12-01T04:33:40;15.50;;;9.18;;
57047;SDS011;42934;54.294;18.598;2022-12-01T04:36:09;16.92;;;9.40;;
57047;SDS011;42934;54.294;18.598;2022-12-01T04:38:39;16.88;;;9.23;;
57047;SDS011;42934;54.294;18.598;2022-12-01T04:41:09;16.25;;;9.55;;
57047;SDS011;42934;54.294;18.598;2022-12-01T04:43:38;15.52;;;9.63;;
57047;SDS011;42934;54.294;18.598;2022-12-01T04:46:08;15.02;;;9.43;;
57047;SDS011;42934;54.294;18.598;2022-12-01T04:48:37;15.10;;;9.48;;
57047;SDS011;42934;54.294;18.598;2022-12-01T04:51:07;16.95;;;9.98;;
57047;SDS011;42934;54.294;18.598;2022-12-01T04:53:36;16.85;;;9.30;;
57047;SDS011;42934;54.294;18.598;2022-12-01T04:56:07;13.38;;;8.45;;
57047;SDS011;42934;54.294;18.598;2022-12-01T04:58:36;14.98;;;9.35;;
57047;SDS011;42934;54.294;18.598;2022-12-01T05:01:06;15.23;;;8.82;;
57047;SDS011;42934;54.294;18.598;2022-12-01T05:03:37;15.73;;;8.60;;
57047;SDS011;42934;54.294;18.598;2022-12-01T05:08:37;15.38;;;8.57;;
57047;SDS011;42934;54.294;18.598;2022-12-01T05:11:08;17.20;;;9.90;;
57047;SDS011;42934;54.294;18.598;2022-12-01T05:13:39;15.27;;;9.32;;
57047;SDS011;42934;54.294;18.598;2022-12-01T05:16:11;17.25;;;9.80;;
57047;SDS011;42934;54.294;18.598;2022-12-01T05:18:41;15.48;;;9.60;;
57047;SDS011;42934;54.294;18.598;2022-12-01T05:21:14;18.42;;;10.73;;
57047;SDS011;42934;54.294;18.598;2022-12-01T05:23:43;18.60;;;11.02;;
57047;SDS011;42934;54.294;18.598;2022-12-01T05:26:14;18.95;;;11.27;;
57047;SDS011;42934;54.294;18.598;2022-12-01T05:31:12;17.52;;;9.85;;
57047;SDS011;42934;54.294;18.598;2022-12-01T05:33:41;17.05;;;10.25;;
57047;SDS011;42934;54.294;18.598;2022-12-01T05:36:10;15.82;;;9.30;;
57047;SDS011;42934;54.294;18.598;2022-12-01T05:38:39;16.92;;;10.07;;
57047;SDS011;42934;54.294;18.598;2022-12-01T05:41:09;16.10;;;9.80;;
57047;SDS011;42934;54.294;18.598;2022-12-01T05:43:39;17.08;;;10.55;;
57047;SDS011;42934;54.294;18.598;2022-12-01T05:46:08;15.43;;;9.48;;
57047;SDS011;42934;54.294;18.598;2022-12-01T05:48:38;17.85;;;10.43;;
57047;SDS011;42934;54.294;18.598;2022-12-01T05:51:07;17.58;;;10.27;;
57047;SDS011;42934;54.294;18.598;2022-12-01T05:53:36;18.52;;;9.82;;
57047;SDS011;42934;54.294;18.598;2022-12-01T05:56:06;17.58;;;9.82;;
57047;SDS011;42934;54.294;18.598;2022-12-01T05:58:35;15.37;;;9.63;;
57047;SDS011;42934;54.294;18.598;2022-12-01T06:01:06;15.13;;;9.40;;
57047;SDS011;42934;54.294;18.598;2022-12-01T06:03:36;13.93;;;8.52;;
57047;SDS011;42934;54.294;18.598;2022-12-01T06:06:05;15.25;;;9.30;;
57047;SDS011;42934;54.294;18.598;2022-12-01T06:08:34;15.65;;;9.57;;
57047;SDS011;42934;54.294;18.598;2022-12-01T06:11:04;17.38;;;9.75;;
57047;SDS011;42934;54.294;18.598;2022-12-01T06:13:33;15.40;;;9.13;;
57047;SDS011;42934;54.294;18.598;2022-12-01T06:16:03;15.70;;;9.00;;
57047;SDS011;42934;54.294;18.598;2022-12-01T06:18:35;16.75;;;10.10;;
57047;SDS011;42934;54.294;18.598;2022-12-01T06:21:05;15.85;;;9.10;;
57047;SDS011;42934;54.294;18.598;2022-12-01T06:23:34;16.38;;;8.98;;
57047;SDS011;42934;54.294;18.598;2022-12-01T06:26:04;17.30;;;10.25;;
57047;SDS011;42934;54.294;18.598;2022-12-01T06:28:33;15.23;;;9.68;;
57047;SDS011;42934;54.294;18.598;2022-12-01T06:31:02;16.35;;;9.93;;
57047;SDS011;42934;54.294;18.598;2022-12-01T06:33:31;16.15;;;9.95;;
57047;SDS011;42934;54.294;18.598;2022-12-01T06:36:03;17.15;;;10.13;;
57047;SDS011;42934;54.294;18.598;2022-12-01T06:38:34;18.15;;;10.60;;
57047;SDS011;42934;54.294;18.598;2022-12-01T06:41:04;17.00;;;9.90;;
57047;SDS011;42934;54.294;18.598;2022-12-01T06:43:34;20.02;;;10.77;;
57047;SDS011;42934;54.294;18.598;2022-12-01T06:46:04;16.55;;;10.32;;
57047;SDS011;42934;54.294;18.598;2022-12-01T06:48:33;19.40;;;11.20;;
57047;SDS011;42934;54.294;18.598;2022-12-01T06:51:04;18.20;;;10.85;;
57047;SDS011;42934;54.294;18.598;2022-12-01T06:53:36;17.63;;;10.95;;
57047;SDS011;42934;54.294;18.598;2022-12-01T06:56:06;17.58;;;10.75;;
57047;SDS011;42934;54.294;18.598;2022-12-01T06:58:35;18.27;;;10.30;;
57047;SDS011;42934;54.294;18.598;2022-12-01T07:01:08;17.92;;;10.57;;
57047;SDS011;42934;54.294;18.598;2022-12-01T07:03:37;20.70;;;12.05;;
57047;SDS011;42934;54.294;18.598;2022-12-01T07:06:08;20.07;;;10.73;;
57047;SDS011;42934;54.294;18.598;2022-12-01T07:08:37;19.75;;;11.20;;
57047;SDS011;42934;54.294;18.598;2022-12-01T07:11:08;19.50;;;11.30;;
57047;SDS011;42934;54.294;18.598;2022-12-01T07:13:39;19.40;;;11.52;;
57047;SDS011;42934;54.294;18.598;2022-12-01T07:16:11;23.55;;;12.07;;
57047;SDS011;42934;54.294;18.598;2022-12-01T07:18:40;18.75;;;11.68;;
57047;SDS011;42934;54.294;18.598;2022-12-01T07:21:12;19.40;;;11.27;;
57047;SDS011;42934;54.294;18.598;2022-12-01T07:23:41;19.33;;;11.18;;
57047;SDS011;42934;54.294;18.598;2022-12-01T07:26:11;21.02;;;12.30;;
57047;SDS011;42934;54.294;18.598;2022-12-01T07:28:41;19.30;;;11.98;;
57047;SDS011;42934;54.294;18.598;2022-12-01T07:31:12;22.20;;;12.77;;
57047;SDS011;42934;54.294;18.598;2022-12-01T07:33:43;21.42;;;11.85;;
57047;SDS011;42934;54.294;18.598;2022-12-01T07:36:14;18.08;;;11.27;;
57047;SDS011;42934;54.294;18.598;2022-12-01T07:38:43;19.20;;;11.50;;
57047;SDS011;42934;54.294;18.598;2022-12-01T07:41:13;18.23;;;11.35;;
57047;SDS011;42934;54.294;18.598;2022-12-01T07:43:45;18.23;;;10.82;;
57047;SDS011;42934;54.294;18.598;2022-12-01T07:46:15;18.15;;;10.98;;
57047;SDS011;42934;54.294;18.598;2022-12-01T07:48:49;34.88;;;18.80;;
57047;SDS011;42934;54.294;18.598;2022-12-01T07:51:21;78.30;;;35.08;;
57047;SDS011;42934;54.294;18.598;2022-12-01T07:53:52;67.45;;;32.47;;
57047;SDS011;42934;54.294;18.598;2022-12-01T07:56:21;56.92;;;27.13;;
57047;SDS011;42934;54.294;18.598;2022-12-01T07:58:50;48.42;;;23.33;;
57047;SDS011;42934;54.294;18.598;2022-12-01T08:01:20;30.55;;;16.25;;
57047;SDS011;42934;54.294;18.598;2022-12-01T08:06:22;23.20;;;12.85;;
57047;SDS011;42934;54.294;18.598;2022-12-01T08:08:52;22.23;;;12.70;;
57047;SDS011;42934;54.294;18.598;2022-12-01T08:11:22;20.10;;;11.13;;
57047;SDS011;42934;54.294;18.598;2022-12-01T08:16:21;26.45;;;13.45;;
57047;SDS011;42934;54.294;18.598;2022-12-01T08:18:51;26.23;;;14.27;;
57047;SDS011;42934;54.294;18.598;2022-12-01T08:21:23;18.27;;;10.18;;
57047;SDS011;42934;54.294;18.598;2022-12-01T08:23:52;18.30;;;10.50;;
57047;SDS011;42934;54.294;18.598;2022-12-01T08:26:23;17.83;;;9.90;;
57047;SDS011;42934;54.294;18.598;2022-12-01T08:28:53;18.88;;;9.88;;
57047;SDS011;42934;54.294;18.598;2022-12-01T08:31:23;17.20;;;10.57;;
57047;SDS011;42934;54.294;18.598;2022-12-01T08:33:54;15.95;;;10.38;;
57047;SDS011;42934;54.294;18.598;2022-12-01T08:36:25;22.45;;;10.35;;
57047;SDS011;42934;54.294;18.598;2022-12-01T08:38:54;19.65;;;10.80;;
57047;SDS011;42934;54.294;18.598;2022-12-01T08:41:24;18.33;;;10.90;;
57047;SDS011;42934;54.294;18.598;2022-12-01T08:43:54;21.67;;;11.02;;
57047;SDS011;42934;54.294;18.598;2022-12-01T08:46:35;18.98;;;10.10;;
57047;SDS011;42934;54.294;18.598;2022-12-01T08:49:04;18.45;;;11.07;;
57047;SDS011;42934;54.294;18.598;2022-12-01T08:51:35;18.02;;;10.90;;
57047;SDS011;42934;54.294;18.598;2022-12-01T08:54:04;17.08;;;9.60;;
57047;SDS011;42934;54.294;18.598;2022-12-01T08:56:35;16.05;;;9.63;;
57047;SDS011;42934;54.294;18.598;2022-12-01T08:59:05;14.98;;;9.50;;
57047;SDS011;42934;54.294;18.598;2022-12-01T09:01:35;21.65;;;10.00;;
57047;SDS011;42934;54.294;18.598;2022-12-01T09:04:18;17.25;;;9.15;;
57047;SDS011;42934;54.294;18.598;2022-12-01T09:06:50;16.65;;;9.68;;
57047;SDS011;42934;54.294;18.598;2022-12-01T09:09:21;16.13;;;9.50;;
57047;SDS011;42934;54.294;18.598;2022-12-01T09:11:52;18.05;;;10.02;;
57047;SDS011;42934;54.294;18.598;2022-12-01T09:14:22;19.08;;;10.73;;
57047;SDS011;42934;54.294;18.598;2022-12-01T09:16:51;15.98;;;10.43;;
57047;SDS011;42934;54.294;18.598;2022-12-01T09:19:21;18.67;;;10.38;;
57047;SDS011;42934;54.294;18.598;2022-12-01T09:21:52;15.85;;;9.75;;
57047;SDS011;42934;54.294;18.598;2022-12-01T09:26:53;15.40;;;9.98;;
57047;SDS011;42934;54.294;18.598;2022-12-01T09:29:22;17.52;;;9.68;;
57047;SDS011;42934;54.294;18.598;2022-12-01T09:31:53;15.55;;;9.65;;
57047;SDS011;42934;54.294;18.598;2022-12-01T09:34:23;14.80;;;8.63;;
57047;SDS011;42934;54.294;18.598;2022-12-01T09:36:55;15.38;;;9.85;;
57047;SDS011;42934;54.294;18.598;2022-12-01T09:39:24;12.38;;;8.15;;
57047;SDS011;42934;54.294;18.598;2022-12-01T09:41:55;12.90;;;7.90;;
57047;SDS011;42934;54.294;18.598;2022-12-01T09:47:13;15.63;;;7.22;;
57047;SDS011;42934;54.294;18.598;2022-12-01T09:49:50;11.82;;;7.60;;
57047;SDS011;42934;54.294;18.598;2022-12-01T09:52:25;11.95;;;7.00;;
57047;SDS011;42934;54.294;18.598;2022-12-01T09:55:09;13.23;;;8.38;;
57047;SDS011;42934;54.294;18.598;2022-12-01T09:57:41;13.50;;;8.50;;
57047;SDS011;42934;54.294;18.598;2022-12-01T10:00:15;12.40;;;7.60;;
57047;SDS011;42934;54.294;18.598;2022-12-01T10:02:48;13.60;;;8.43;;
57047;SDS011;42934;54.294;18.598;2022-12-01T10:05:19;14.07;;;8.70;;
57047;SDS011;42934;54.294;18.598;2022-12-01T10:07:53;12.50;;;7.53;;
57047;SDS011;42934;54.294;18.598;2022-12-01T10:10:26;13.98;;;8.73;;
57047;SDS011;42934;54.294;18.598;2022-12-01T10:12:57;12.57;;;8.50;;
57047;SDS011;42934;54.294;18.598;2022-12-01T10:15:29;16.00;;;7.97;;
57047;SDS011;42934;54.294;18.598;2022-12-01T10:18:19;14.07;;;8.18;;
57047;SDS011;42934;54.294;18.598;2022-12-01T10:21:02;12.95;;;8.25;;
57047;SDS011;42934;54.294;18.598;2022-12-01T10:23:43;14.07;;;7.88;;
57047;SDS011;42934;54.294;18.598;2022-12-01T10:26:24;13.70;;;7.57;;
57047;SDS011;42934;54.294;18.598;2022-12-01T10:29:02;15.02;;;8.32;;
57047;SDS011;42934;54.294;18.598;2022-12-01T10:31:42;21.55;;;7.97;;
57047;SDS011;42934;54.294;18.598;2022-12-01T10:34:20;17.45;;;7.80;;
57047;SDS011;42934;54.294;18.598;2022-12-01T10:36:51;16.77;;;8.60;;
57047;SDS011;42934;54.294;18.598;2022-12-01T10:39:24;16.33;;;8.43;;
57047;SDS011;42934;54.294;18.598;2022-12-01T10:42:00;13.82;;;8.30;;
57047;SDS011;42934;54.294;18.598;2022-12-01T10:44:32;15.07;;;7.97;;
57047;SDS011;42934;54.294;18.598;2022-12-01T10:47:02;14.85;;;7.47;;
57047;SDS011;42934;54.294;18.598;2022-12-01T10:49:39;12.10;;;6.85;;
57047;SDS011;42934;54.294;18.598;2022-12-01T10:52:09;16.23;;;8.32;;
57047;SDS011;42934;54.294;18.598;2022-12-01T10:55:03;13.75;;;6.85;;
57047;SDS011;42934;54.294;18.598;2022-12-01T10:57:52;12.27;;;6.60;;
57047;SDS011;42934;54.294;18.598;2022-12-01T11:00:24;11.65;;;6.43;;
57047;SDS011;42934;54.294;18.598;2022-12-01T11:03:16;10.52;;;6.25;;
57047;SDS011;42934;54.294;18.598;2022-12-01T11:05:50;10.98;;;6.40;;
57047;SDS011;42934;54.294;18.598;2022-12-01T11:08:24;11.48;;;6.15;;
57047;SDS011;42934;54.294;18.598;2022-12-01T11:11:00;10.90;;;6.35;;
57047;SDS011;42934;54.294;18.598;2022-12-01T11:13:30;10.25;;;6.07;;
57047;SDS011;42934;54.294;18.598;2022-12-01T11:16:03;10.27;;;5.63;;
57047;SDS011;42934;54.294;18.598;2022-12-01T11:18:34;12.70;;;6.05;;
57047;SDS011;42934;54.294;18.598;2022-12-01T11:21:07;9.63;;;6.03;;
57047;SDS011;42934;54.294;18.598;2022-12-01T11:23:43;10.43;;;6.15;;
57047;SDS011;42934;54.294;18.598;2022-12-01T11:26:15;13.68;;;6.60;;
57047;SDS011;42934;54.294;18.598;2022-12-01T11:28:51;10.88;;;5.70;;
57047;SDS011;42934;54.294;18.598;2022-12-01T11:31:23;11.05;;;6.43;;
57047;SDS011;42934;54.294;18.598;2022-12-01T11:34:04;10.70;;;6.05;;
57047;SDS011;42934;54.294;18.598;2022-12-01T11:36:43;11.02;;;6.20;;
57047;SDS011;42934;54.294;18.598;2022-12-01T11:39:19;8.20;;;5.35;;
57047;SDS011;42934;54.294;18.598;2022-12-01T11:41:55;10.77;;;6.05;;
57047;SDS011;42934;54.294;18.598;2022-12-01T11:44:26;9.00;;;4.82;;
57047;SDS011;42934;54.294;18.598;2022-12-01T11:47:18;10.40;;;5.60;;
57047;SDS011;42934;54.294;18.598;2022-12-01T11:49:51;9.65;;;5.53;;
57047;SDS011;42934;54.294;18.598;2022-12-01T11:52:24;9.43;;;5.53;;
57047;SDS011;42934;54.294;18.598;2022-12-01T11:54:57;10.27;;;5.82;;
57047;SDS011;42934;54.294;18.598;2022-12-01T11:57:37;10.57;;;5.43;;
57047;SDS011;42934;54.294;18.598;2022-12-01T12:00:11;9.50;;;4.88;;
57047;SDS011;42934;54.294;18.598;2022-12-01T12:02:45;8.85;;;5.18;;
57047;SDS011;42934;54.294;18.598;2022-12-01T12:05:38;9.68;;;5.00;;
57047;SDS011;42934;54.294;18.598;2022-12-01T12:08:26;14.90;;;6.75;;
57047;SDS011;42934;54.294;18.598;2022-12-01T12:11:17;33.17;;;12.55;;
57047;SDS011;42934;54.294;18.598;2022-12-01T12:14:05;20.33;;;8.98;;
57047;SDS011;42934;54.294;18.598;2022-12-01T12:16:52;17.45;;;7.68;;
57047;SDS011;42934;54.294;18.598;2022-12-01T12:19:42;10.82;;;6.30;;
57047;SDS011;42934;54.294;18.598;2022-12-01T12:22:42;10.82;;;5.25;;
57047;SDS011;42934;54.294;18.598;2022-12-01T12:25:24;7.90;;;4.88;;
57047;SDS011;42934;54.294;18.598;2022-12-01T12:28:04;8.85;;;4.30;;
57047;SDS011;42934;54.294;18.598;2022-12-01T12:30:48;5.93;;;4.25;;
57047;SDS011;42934;54.294;18.598;2022-12-01T12:33:37;5.78;;;3.60;;
57047;SDS011;42934;54.294;18.598;2022-12-01T12:36:24;6.70;;;3.85;;
57047;SDS011;42934;54.294;18.598;2022-12-01T12:39:07;8.13;;;4.40;;
57047;SDS011;42934;54.294;18.598;2022-12-01T12:41:49;11.23;;;4.68;;
57047;SDS011;42934;54.294;18.598;2022-12-01T12:44:33;8.27;;;4.13;;
57047;SDS011;42934;54.294;18.598;2022-12-01T12:47:18;11.90;;;4.75;;
57047;SDS011;42934;54.294;18.598;2022-12-01T12:50:09;11.02;;;5.60;;
57047;SDS011;42934;54.294;18.598;2022-12-01T12:52:46;11.68;;;5.65;;
57047;SDS011;42934;54.294;18.598;2022-12-01T12:55:22;13.98;;;5.95;;
57047;SDS011;42934;54.294;18.598;2022-12-01T12:57:55;9.00;;;4.47;;
57047;SDS011;42934;54.294;18.598;2022-12-01T13:00:35;5.07;;;3.60;;
57047;SDS011;42934;54.294;18.598;2022-12-01T13:03:12;6.35;;;3.47;;
57047;SDS011;42934;54.294;18.598;2022-12-01T13:05:47;7.22;;;3.95;;
57047;SDS011;42934;54.294;18.598;2022-12-01T13:08:22;6.50;;;3.50;;
57047;SDS011;42934;54.294;18.598;2022-12-01T13:10:54;7.05;;;3.42;;
57047;SDS011;42934;54.294;18.598;2022-12-01T13:13:30;7.50;;;4.40;;
57047;SDS011;42934;54.294;18.598;2022-12-01T13:16:05;5.97;;;3.60;;
57047;SDS011;42934;54.294;18.598;2022-12-01T13:18:43;6.97;;;3.55;;
57047;SDS011;42934;54.294;18.598;2022-12-01T13:21:16;8.55;;;3.88;;
57047;SDS011;42934;54.294;18.598;2022-12-01T13:23:48;5.40;;;3.25;;
57047;SDS011;42934;54.294;18.598;2022-12-01T13:26:19;5.47;;;3.42;;
57047;SDS011;42934;54.294;18.598;2022-12-01T13:31:20;5.43;;;3.35;;
57047;SDS011;42934;54.294;18.598;2022-12-01T13:33:55;7.03;;;3.35;;
57047;SDS011;42934;54.294;18.598;2022-12-01T13:36:26;5.03;;;3.38;;
57047;SDS011;42934;54.294;18.598;2022-12-01T13:39:15;8.50;;;3.70;;
57047;SDS011;42934;54.294;18.598;2022-12-01T13:41:54;7.15;;;3.80;;
57047;SDS011;42934;54.294;18.598;2022-12-01T13:44:27;8.90;;;3.92;;
57047;SDS011;42934;54.294;18.598;2022-12-01T13:47:02;8.65;;;3.92;;
57047;SDS011;42934;54.294;18.598;2022-12-01T13:49:53;9.15;;;4.35;;
57047;SDS011;42934;54.294;18.598;2022-12-01T13:52:25;8.57;;;5.35;;
57047;SDS011;42934;54.294;18.598;2022-12-01T13:55:02;9.10;;;4.93;;
57047;SDS011;42934;54.294;18.598;2022-12-01T14:00:49;7.07;;;4.60;;
57047;SDS011;42934;54.294;18.598;2022-12-01T14:03:35;10.20;;;4.15;;
57047;SDS011;42934;54.294;18.598;2022-12-01T14:06:20;9.55;;;4.18;;
57047;SDS011;42934;54.294;18.598;2022-12-01T14:08:55;6.43;;;3.55;;
57047;SDS011;42934;54.294;18.598;2022-12-01T14:11:28;7.40;;;3.67;;
57047;SDS011;42934;54.294;18.598;2022-12-01T14:13:59;5.38;;;3.53;;
57047;SDS011;42934;54.294;18.598;2022-12-01T14:16:47;8.02;;;4.30;;
57047;SDS011;42934;54.294;18.598;2022-12-01T14:19:29;7.28;;;4.15;;
57047;SDS011;42934;54.294;18.598;2022-12-01T14:22:04;6.97;;;4.28;;
57047;SDS011;42934;54.294;18.598;2022-12-01T14:24:35;8.50;;;4.10;;
57047;SDS011;42934;54.294;18.598;2022-12-01T14:27:07;8.18;;;4.50;;
57047;SDS011;42934;54.294;18.598;2022-12-01T14:29:38;10.18;;;4.50;;
57047;SDS011;42934;54.294;18.598;2022-12-01T14:32:18;19.42;;;4.70;;
57047;SDS011;42934;54.294;18.598;2022-12-01T14:34:50;8.73;;;4.50;;
57047;SDS011;42934;54.294;18.598;2022-12-01T14:37:25;8.00;;;5.07;;
57047;SDS011;42934;54.294;18.598;2022-12-01T14:40:05;8.77;;;4.55;;
57047;SDS011;42934;54.294;18.598;2022-12-01T14:42:40;11.20;;;5.45;;
57047;SDS011;42934;54.294;18.598;2022-12-01T14:45:30;8.52;;;4.70;;
57047;SDS011;42934;54.294;18.598;2022-12-01T14:48:03;8.02;;;4.97;;
57047;SDS011;42934;54.294;18.598;2022-12-01T14:50:37;8.55;;;4.50;;
57047;SDS011;42934;54.294;18.598;2022-12-01T14:53:16;7.82;;;4.45;;
57047;SDS011;42934;54.294;18.598;2022-12-01T14:55:52;7.97;;;4.32;;
57047;SDS011;42934;54.294;18.598;2022-12-01T14:58:24;11.95;;;5.18;;
57047;SDS011;42934;54.294;18.598;2022-12-01T15:03:42;14.82;;;7.80;;
57047;SDS011;42934;54.294;18.598;2022-12-01T15:06:15;13.57;;;7.10;;
57047;SDS011;42934;54.294;18.598;2022-12-01T15:09:01;14.75;;;7.18;;
57047;SDS011;42934;54.294;18.598;2022-12-01T15:11:53;14.73;;;6.60;;
57047;SDS011;42934;54.294;18.598;2022-12-01T15:14:27;13.40;;;6.78;;
57047;SDS011;42934;54.294;18.598;2022-12-01T15:16:58;14.68;;;7.78;;
57047;SDS011;42934;54.294;18.598;2022-12-01T15:19:32;19.98;;;8.55;;
57047;SDS011;42934;54.294;18.598;2022-12-01T15:22:06;23.42;;;9.60;;
57047;SDS011;42934;54.294;18.598;2022-12-01T15:24:42;17.90;;;8.23;;
57047;SDS011;42934;54.294;18.598;2022-12-01T15:27:26;13.50;;;6.85;;
57047;SDS011;42934;54.294;18.598;2022-12-01T15:29:56;14.27;;;6.32;;
57047;SDS011;42934;54.294;18.598;2022-12-01T15:32:30;19.48;;;9.68;;
57047;SDS011;42934;54.294;18.598;2022-12-01T15:35:04;32.97;;;15.40;;
57047;SDS011;42934;54.294;18.598;2022-12-01T15:37:39;29.85;;;15.20;;
57047;SDS011;42934;54.294;18.598;2022-12-01T15:40:13;26.83;;;12.98;;